sensor_id;sensor_type;location;lat;lon;timestamp;P1;durP1;ratioP1;P2;durP2;ratioP2
12591;SDS011;6361;52.120;5.108;2023-02-21T00:02:35;55.90;;;27.58;;
12591;SDS011;6361;52.120;5.108;2023-02-21T00:05:19;58.05;;;26.55;;
12591;SDS011;6361;52.120;5.108;2023-02-21T00:08:03;63.50;;;27.77;;
12591;SDS011;6361;52.120;5.108;2023-02-21T00:10:47;61.80;;;27.63;;
12591;SDS011;6361;52.120;5.108;2023-02-21T00:13:34;62.90;;;27.50;;
12591;SDS011;6361;52.120;5.108;2023-02-21T00:16:19;61.85;;;28.40;;
12591;SDS011;6361;52.120;5.108;2023-02-21T00:19:03;62.55;;;26.52;;
12591;SDS011;6361;52.120;5.108;2023-02-21T00:21:47;54.72;;;26.23;;
12591;SDS011;6361;52.120;5.108;2023-02-21T00:24:31;56.58;;;27.02;;
12591;SDS011;6361;52.120;5.108;2023-02-21T00:27:15;59.20;;;27.52;;
12591;SDS011;6361;52.120;5.108;2023-02-21T00:29:59;58.33;;;26.50;;
12591;SDS011;6361;52.120;5.108;2023-02-21T00:32:43;61.75;;;27.33;;
12591;SDS011;6361;52.120;5.108;2023-02-21T00:35:27;62.47;;;27.75;;
12591;SDS011;6361;52.120;5.108;2023-02-21T00:38:11;61.80;;;29.00;;
12591;SDS011;6361;52.120;5.108;2023-02-21T00:40:55;59.40;;;28.38;;
12591;SDS011;6361;52.120;5.108;2023-02-21T00:43:39;64.88;;;27.02;;
12591;SDS011;6361;52.120;5.108;2023-02-21T00:46:23;62.80;;;30.23;;
12591;SDS011;6361;52.120;5.108;2023-02-21T00:49:08;64.55;;;27.58;;
12591;SDS011;6361;52.120;5.108;2023-02-21T00:51:51;68.87;;;29.40;;
12591;SDS011;6361;52.120;5.108;2023-02-21T00:54:36;71.45;;;30.80;;
12591;SDS011;6361;52.120;5.108;2023-02-21T00:57:21;65.50;;;29.95;;
12591;SDS011;6361;52.120;5.108;2023-02-21T01:00:05;64.43;;;29.83;;
12591;SDS011;6361;52.120;5.108;2023-02-21T01:02:51;75.60;;;29.70;;
12591;SDS011;6361;52.120;5.108;2023-02-21T01:05:35;67.88;;;30.33;;
12591;SDS011;6361;52.120;5.108;2023-02-21T01:08:19;62.65;;;27.85;;
12591;SDS011;6361;52.120;5.108;2023-02-21T01:11:03;71.18;;;31.05;;
12591;SDS011;6361;52.120;5.108;2023-02-21T01:13:47;68.65;;;31.02;;
12591;SDS011;6361;52.120;5.108;2023-02-21T01:16:31;67.85;;;28.83;;
12591;SDS011;6361;52.120;5.108;2023-02-21T01:19:16;71.82;;;31.98;;
12591;SDS011;6361;52.120;5.108;2023-02-21T01:22:01;67.50;;;32.15;;
12591;SDS011;6361;52.120;5.108;2023-02-21T01:24:47;70.55;;;31.92;;
12591;SDS011;6361;52.120;5.108;2023-02-21T01:27:32;67.32;;;32.10;;
12591;SDS011;6361;52.120;5.108;2023-02-21T01:30:16;69.55;;;32.80;;
12591;SDS011;6361;52.120;5.108;2023-02-21T01:33:00;66.05;;;30.20;;
12591;SDS011;6361;52.120;5.108;2023-02-21T01:35:44;65.43;;;32.25;;
12591;SDS011;6361;52.120;5.108;2023-02-21T01:38:31;71.30;;;31.98;;
12591;SDS011;6361;52.120;5.108;2023-02-21T01:41:16;63.60;;;30.73;;
12591;SDS011;6361;52.120;5.108;2023-02-21T01:44:05;72.18;;;33.42;;
12591;SDS011;6361;52.120;5.108;2023-02-21T01:46:50;67.90;;;33.35;;
12591;SDS011;6361;52.120;5.108;2023-02-21T01:49:35;68.88;;;31.10;;
12591;SDS011;6361;52.120;5.108;2023-02-21T01:52:21;71.93;;;33.58;;
12591;SDS011;6361;52.120;5.108;2023-02-21T01:55:05;63.47;;;31.55;;
12591;SDS011;6361;52.120;5.108;2023-02-21T01:57:49;70.77;;;31.57;;
12591;SDS011;6361;52.120;5.108;2023-02-21T02:00:34;66.60;;;31.43;;
12591;SDS011;6361;52.120;5.108;2023-02-21T02:03:18;65.03;;;30.75;;
12591;SDS011;6361;52.120;5.108;2023-02-21T02:06:07;63.72;;;30.73;;
12591;SDS011;6361;52.120;5.108;2023-02-21T02:08:52;64.30;;;28.85;;
12591;SDS011;6361;52.120;5.108;2023-02-21T02:28:17;63.83;;;29.30;;
12591;SDS011;6361;52.120;5.108;2023-02-21T02:31:04;66.75;;;30.75;;
12591;SDS011;6361;52.120;5.108;2023-02-21T02:42:37;62.25;;;29.77;;
12591;SDS011;6361;52.120;5.108;2023-02-21T02:45:12;80.72;;;34.08;;
12591;SDS011;6361;52.120;5.108;2023-02-21T02:47:49;71.63;;;32.15;;
12591;SDS011;6361;52.120;5.108;2023-02-21T02:50:17;72.28;;;34.90;;
12591;SDS011;6361;52.120;5.108;2023-02-21T02:52:54;82.05;;;35.10;;
12591;SDS011;6361;52.120;5.108;2023-02-21T02:55:32;64.38;;;31.85;;
12591;SDS011;6361;52.120;5.108;2023-02-21T02:58:06;73.85;;;34.67;;
12591;SDS011;6361;52.120;5.108;2023-02-21T03:00:34;71.13;;;34.53;;
12591;SDS011;6361;52.120;5.108;2023-02-21T03:03:05;83.07;;;35.95;;
12591;SDS011;6361;52.120;5.108;2023-02-21T03:11:19;79.10;;;34.20;;
12591;SDS011;6361;52.120;5.108;2023-02-21T03:14:02;71.00;;;34.10;;
12591;SDS011;6361;52.120;5.108;2023-02-21T03:16:31;79.85;;;34.35;;
12591;SDS011;6361;52.120;5.108;2023-02-21T03:19:12;74.78;;;34.88;;
12591;SDS011;6361;52.120;5.108;2023-02-21T03:21:51;89.65;;;36.35;;
12591;SDS011;6361;52.120;5.108;2023-02-21T03:24:19;75.80;;;33.80;;
12591;SDS011;6361;52.120;5.108;2023-02-21T03:26:47;73.32;;;35.15;;
12591;SDS011;6361;52.120;5.108;2023-02-21T03:29:14;73.53;;;35.28;;
12591;SDS011;6361;52.120;5.108;2023-02-21T03:31:42;71.93;;;35.22;;
12591;SDS011;6361;52.120;5.108;2023-02-21T03:34:09;77.68;;;35.10;;
12591;SDS011;6361;52.120;5.108;2023-02-21T03:36:35;70.85;;;34.47;;
12591;SDS011;6361;52.120;5.108;2023-02-21T03:39:01;72.72;;;34.70;;
12591;SDS011;6361;52.120;5.108;2023-02-21T03:41:27;69.38;;;35.28;;
12591;SDS011;6361;52.120;5.108;2023-02-21T03:43:52;76.35;;;35.08;;
12591;SDS011;6361;52.120;5.108;2023-02-21T03:46:18;81.20;;;35.28;;
12591;SDS011;6361;52.120;5.108;2023-02-21T03:48:43;81.10;;;35.78;;
12591;SDS011;6361;52.120;5.108;2023-02-21T03:51:09;75.82;;;34.65;;
12591;SDS011;6361;52.120;5.108;2023-02-21T03:53:34;74.57;;;34.55;;
12591;SDS011;6361;52.120;5.108;2023-02-21T03:55:59;73.18;;;33.72;;
12591;SDS011;6361;52.120;5.108;2023-02-21T03:58:25;79.15;;;35.50;;
12591;SDS011;6361;52.120;5.108;2023-02-21T04:00:50;77.75;;;34.88;;
12591;SDS011;6361;52.120;5.108;2023-02-21T04:03:17;81.60;;;37.17;;
12591;SDS011;6361;52.120;5.108;2023-02-21T04:05:43;90.68;;;36.58;;
12591;SDS011;6361;52.120;5.108;2023-02-21T04:08:08;83.07;;;37.10;;
12591;SDS011;6361;52.120;5.108;2023-02-21T04:10:34;75.03;;;36.65;;
12591;SDS011;6361;52.120;5.108;2023-02-21T04:12:59;73.55;;;36.05;;
12591;SDS011;6361;52.120;5.108;2023-02-21T04:15:24;75.70;;;35.35;;
12591;SDS011;6361;52.120;5.108;2023-02-21T04:17:50;75.47;;;35.95;;
12591;SDS011;6361;52.120;5.108;2023-02-21T04:20:15;76.25;;;36.80;;
12591;SDS011;6361;52.120;5.108;2023-02-21T04:22:41;80.57;;;38.15;;
12591;SDS011;6361;52.120;5.108;2023-02-21T04:25:06;78.82;;;35.65;;
12591;SDS011;6361;52.120;5.108;2023-02-21T04:27:32;88.15;;;39.08;;
12591;SDS011;6361;52.120;5.108;2023-02-21T04:29:58;83.70;;;37.67;;
12591;SDS011;6361;52.120;5.108;2023-02-21T04:32:24;83.60;;;37.40;;
12591;SDS011;6361;52.120;5.108;2023-02-21T04:34:49;87.25;;;36.15;;
12591;SDS011;6361;52.120;5.108;2023-02-21T04:37:15;88.47;;;39.53;;
12591;SDS011;6361;52.120;5.108;2023-02-21T04:39:41;90.47;;;37.30;;
12591;SDS011;6361;52.120;5.108;2023-02-21T04:42:06;91.25;;;39.25;;
12591;SDS011;6361;52.120;5.108;2023-02-21T04:44:33;87.57;;;38.33;;
12591;SDS011;6361;52.120;5.108;2023-02-21T04:46:58;93.70;;;39.05;;
12591;SDS011;6361;52.120;5.108;2023-02-21T04:49:24;86.13;;;38.22;;
12591;SDS011;6361;52.120;5.108;2023-02-21T04:51:51;98.45;;;39.95;;
12591;SDS011;6361;52.120;5.108;2023-02-21T04:54:17;89.15;;;37.03;;
12591;SDS011;6361;52.120;5.108;2023-02-21T04:56:43;95.30;;;39.20;;
12591;SDS011;6361;52.120;5.108;2023-02-21T04:59:09;91.30;;;39.05;;
12591;SDS011;6361;52.120;5.108;2023-02-21T05:01:34;89.85;;;39.78;;
12591;SDS011;6361;52.120;5.108;2023-02-21T05:03:59;89.95;;;40.88;;
12591;SDS011;6361;52.120;5.108;2023-02-21T05:06:25;93.68;;;41.65;;
12591;SDS011;6361;52.120;5.108;2023-02-21T05:08:52;95.55;;;41.00;;
12591;SDS011;6361;52.120;5.108;2023-02-21T05:11:18;99.90;;;41.65;;
12591;SDS011;6361;52.120;5.108;2023-02-21T05:13:44;101.22;;;40.65;;
12591;SDS011;6361;52.120;5.108;2023-02-21T05:16:10;95.93;;;41.40;;
12591;SDS011;6361;52.120;5.108;2023-02-21T05:18:36;96.38;;;39.25;;
12591;SDS011;6361;52.120;5.108;2023-02-21T05:21:03;93.68;;;38.65;;
12591;SDS011;6361;52.120;5.108;2023-02-21T05:23:29;88.57;;;38.05;;
12591;SDS011;6361;52.120;5.108;2023-02-21T05:25:59;86.72;;;38.15;;
12591;SDS011;6361;52.120;5.108;2023-02-21T05:28:28;103.57;;;40.60;;
12591;SDS011;6361;52.120;5.108;2023-02-21T05:30:54;93.88;;;39.70;;
12591;SDS011;6361;52.120;5.108;2023-02-21T05:33:19;99.88;;;40.22;;
12591;SDS011;6361;52.120;5.108;2023-02-21T05:35:45;101.22;;;40.33;;
12591;SDS011;6361;52.120;5.108;2023-02-21T05:38:14;91.47;;;40.75;;
12591;SDS011;6361;52.120;5.108;2023-02-21T05:40:40;96.82;;;40.65;;
12591;SDS011;6361;52.120;5.108;2023-02-21T05:43:05;106.85;;;41.00;;
12591;SDS011;6361;52.120;5.108;2023-02-21T05:45:31;100.20;;;40.53;;
12591;SDS011;6361;52.120;5.108;2023-02-21T05:47:56;106.30;;;40.47;;
12591;SDS011;6361;52.120;5.108;2023-02-21T05:50:24;97.20;;;38.80;;
12591;SDS011;6361;52.120;5.108;2023-02-21T05:52:52;104.22;;;40.22;;
12591;SDS011;6361;52.120;5.108;2023-02-21T05:55:18;96.28;;;38.40;;
12591;SDS011;6361;52.120;5.108;2023-02-21T05:57:43;97.65;;;41.00;;
12591;SDS011;6361;52.120;5.108;2023-02-21T06:00:14;105.72;;;41.38;;
12591;SDS011;6361;52.120;5.108;2023-02-21T06:02:44;101.68;;;42.30;;
12591;SDS011;6361;52.120;5.108;2023-02-21T06:05:09;93.35;;;38.92;;
12591;SDS011;6361;52.120;5.108;2023-02-21T06:07:35;95.03;;;40.30;;
12591;SDS011;6361;52.120;5.108;2023-02-21T06:10:01;103.75;;;40.70;;
12591;SDS011;6361;52.120;5.108;2023-02-21T06:12:26;100.10;;;41.05;;
12591;SDS011;6361;52.120;5.108;2023-02-21T06:14:51;100.90;;;40.85;;
12591;SDS011;6361;52.120;5.108;2023-02-21T06:17:17;100.10;;;40.22;;
12591;SDS011;6361;52.120;5.108;2023-02-21T06:19:42;99.07;;;40.67;;
12591;SDS011;6361;52.120;5.108;2023-02-21T06:22:08;97.72;;;41.55;;
12591;SDS011;6361;52.120;5.108;2023-02-21T06:24:33;108.78;;;41.30;;
12591;SDS011;6361;52.120;5.108;2023-02-21T06:26:58;98.97;;;40.70;;
12591;SDS011;6361;52.120;5.108;2023-02-21T06:29:24;100.43;;;43.15;;
12591;SDS011;6361;52.120;5.108;2023-02-21T06:31:49;99.47;;;39.38;;
12591;SDS011;6361;52.120;5.108;2023-02-21T06:34:20;99.32;;;39.78;;
12591;SDS011;6361;52.120;5.108;2023-02-21T06:36:46;108.57;;;42.63;;
12591;SDS011;6361;52.120;5.108;2023-02-21T06:39:15;109.75;;;40.78;;
12591;SDS011;6361;52.120;5.108;2023-02-21T06:41:41;105.30;;;41.72;;
12591;SDS011;6361;52.120;5.108;2023-02-21T06:44:06;106.70;;;43.25;;
12591;SDS011;6361;52.120;5.108;2023-02-21T06:46:31;101.43;;;41.75;;
12591;SDS011;6361;52.120;5.108;2023-02-21T06:48:59;101.47;;;40.97;;
12591;SDS011;6361;52.120;5.108;2023-02-21T06:51:24;100.18;;;40.63;;
12591;SDS011;6361;52.120;5.108;2023-02-21T06:53:56;112.68;;;42.47;;
12591;SDS011;6361;52.120;5.108;2023-02-21T06:56:22;108.53;;;42.53;;
12591;SDS011;6361;52.120;5.108;2023-02-21T06:58:47;97.93;;;41.22;;
12591;SDS011;6361;52.120;5.108;2023-02-21T07:01:12;101.18;;;43.08;;
12591;SDS011;6361;52.120;5.108;2023-02-21T07:03:39;108.78;;;42.72;;
12591;SDS011;6361;52.120;5.108;2023-02-21T07:06:06;105.05;;;42.78;;
12591;SDS011;6361;52.120;5.108;2023-02-21T07:08:32;108.80;;;41.42;;
12591;SDS011;6361;52.120;5.108;2023-02-21T07:11:00;110.22;;;43.92;;
12591;SDS011;6361;52.120;5.108;2023-02-21T07:13:25;107.57;;;43.65;;
12591;SDS011;6361;52.120;5.108;2023-02-21T07:15:50;115.00;;;44.95;;
12591;SDS011;6361;52.120;5.108;2023-02-21T07:18:16;111.32;;;44.42;;
12591;SDS011;6361;52.120;5.108;2023-02-21T07:20:41;112.88;;;45.90;;
12591;SDS011;6361;52.120;5.108;2023-02-21T07:23:07;122.25;;;45.75;;
12591;SDS011;6361;52.120;5.108;2023-02-21T07:25:32;114.93;;;44.63;;
12591;SDS011;6361;52.120;5.108;2023-02-21T07:27:57;110.75;;;43.60;;
12591;SDS011;6361;52.120;5.108;2023-02-21T07:30:23;120.18;;;45.38;;
12591;SDS011;6361;52.120;5.108;2023-02-21T07:32:48;119.82;;;45.47;;
12591;SDS011;6361;52.120;5.108;2023-02-21T07:35:13;113.88;;;43.47;;
12591;SDS011;6361;52.120;5.108;2023-02-21T07:37:39;123.03;;;45.03;;
12591;SDS011;6361;52.120;5.108;2023-02-21T07:40:04;124.07;;;45.60;;
12591;SDS011;6361;52.120;5.108;2023-02-21T07:42:33;124.15;;;46.72;;
12591;SDS011;6361;52.120;5.108;2023-02-21T07:44:59;120.43;;;44.92;;
12591;SDS011;6361;52.120;5.108;2023-02-21T07:47:25;121.68;;;45.72;;
12591;SDS011;6361;52.120;5.108;2023-02-21T07:49:51;122.20;;;45.20;;
12591;SDS011;6361;52.120;5.108;2023-02-21T07:52:18;118.40;;;45.78;;
12591;SDS011;6361;52.120;5.108;2023-02-21T07:54:44;125.88;;;46.67;;
12591;SDS011;6361;52.120;5.108;2023-02-21T07:57:09;128.77;;;46.92;;
12591;SDS011;6361;52.120;5.108;2023-02-21T07:59:37;128.82;;;48.30;;
12591;SDS011;6361;52.120;5.108;2023-02-21T08:02:03;129.88;;;48.78;;
12591;SDS011;6361;52.120;5.108;2023-02-21T08:04:29;137.80;;;48.92;;
12591;SDS011;6361;52.120;5.108;2023-02-21T08:06:58;140.88;;;48.13;;
12591;SDS011;6361;52.120;5.108;2023-02-21T08:09:24;136.02;;;47.05;;
12591;SDS011;6361;52.120;5.108;2023-02-21T08:11:50;141.20;;;49.15;;
12591;SDS011;6361;52.120;5.108;2023-02-21T08:14:15;145.23;;;49.33;;
12591;SDS011;6361;52.120;5.108;2023-02-21T08:16:40;145.70;;;49.10;;
12591;SDS011;6361;52.120;5.108;2023-02-21T08:19:06;141.80;;;46.90;;
12591;SDS011;6361;52.120;5.108;2023-02-21T08:21:33;149.32;;;50.00;;
12591;SDS011;6361;52.120;5.108;2023-02-21T08:23:58;155.45;;;49.58;;
12591;SDS011;6361;52.120;5.108;2023-02-21T08:26:24;162.18;;;51.08;;
12591;SDS011;6361;52.120;5.108;2023-02-21T08:28:49;153.27;;;48.55;;
12591;SDS011;6361;52.120;5.108;2023-02-21T08:31:14;168.20;;;48.92;;
12591;SDS011;6361;52.120;5.108;2023-02-21T08:33:40;168.07;;;50.22;;
12591;SDS011;6361;52.120;5.108;2023-02-21T08:36:05;174.43;;;50.60;;
12591;SDS011;6361;52.120;5.108;2023-02-21T08:38:34;173.32;;;50.25;;
12591;SDS011;6361;52.120;5.108;2023-02-21T08:40:59;174.35;;;49.30;;
12591;SDS011;6361;52.120;5.108;2023-02-21T08:43:25;179.80;;;50.85;;
12591;SDS011;6361;52.120;5.108;2023-02-21T08:45:51;164.48;;;49.30;;
12591;SDS011;6361;52.120;5.108;2023-02-21T08:48:16;171.20;;;50.25;;
12591;SDS011;6361;52.120;5.108;2023-02-21T08:50:42;162.05;;;50.35;;
12591;SDS011;6361;52.120;5.108;2023-02-21T08:53:08;168.57;;;50.70;;
12591;SDS011;6361;52.120;5.108;2023-02-21T08:55:35;176.07;;;50.03;;
12591;SDS011;6361;52.120;5.108;2023-02-21T08:58:01;183.45;;;52.63;;
12591;SDS011;6361;52.120;5.108;2023-02-21T09:00:26;162.48;;;49.53;;
12591;SDS011;6361;52.120;5.108;2023-02-21T09:02:52;170.27;;;48.92;;
12591;SDS011;6361;52.120;5.108;2023-02-21T09:05:19;175.43;;;51.17;;
12591;SDS011;6361;52.120;5.108;2023-02-21T09:07:48;182.43;;;51.03;;
12591;SDS011;6361;52.120;5.108;2023-02-21T09:10:15;167.18;;;51.38;;
12591;SDS011;6361;52.120;5.108;2023-02-21T09:12:41;160.10;;;49.80;;
12591;SDS011;6361;52.120;5.108;2023-02-21T09:15:07;172.80;;;49.80;;
12591;SDS011;6361;52.120;5.108;2023-02-21T09:17:33;174.80;;;50.78;;
12591;SDS011;6361;52.120;5.108;2023-02-21T09:19:59;168.23;;;48.67;;
12591;SDS011;6361;52.120;5.108;2023-02-21T09:22:25;179.65;;;50.10;;
12591;SDS011;6361;52.120;5.108;2023-02-21T09:24:51;186.35;;;49.88;;
12591;SDS011;6361;52.120;5.108;2023-02-21T09:27:16;188.23;;;50.35;;
12591;SDS011;6361;52.120;5.108;2023-02-21T09:29:41;182.82;;;48.53;;
12591;SDS011;6361;52.120;5.108;2023-02-21T09:32:07;179.43;;;51.47;;
12591;SDS011;6361;52.120;5.108;2023-02-21T09:34:32;172.30;;;49.25;;
12591;SDS011;6361;52.120;5.108;2023-02-21T09:36:58;174.25;;;50.67;;
12591;SDS011;6361;52.120;5.108;2023-02-21T09:39:23;180.45;;;49.95;;
12591;SDS011;6361;52.120;5.108;2023-02-21T09:41:49;181.65;;;47.97;;
12591;SDS011;6361;52.120;5.108;2023-02-21T09:44:16;188.70;;;48.45;;
12591;SDS011;6361;52.120;5.108;2023-02-21T09:46:44;191.93;;;47.20;;
12591;SDS011;6361;52.120;5.108;2023-02-21T09:49:12;189.00;;;46.90;;
12591;SDS011;6361;52.120;5.108;2023-02-21T09:51:42;195.27;;;50.53;;
12591;SDS011;6361;52.120;5.108;2023-02-21T09:55:12;184.60;;;48.13;;
12591;SDS011;6361;52.120;5.108;2023-02-21T09:57:10;171.30;;;47.85;;
12591;SDS011;6361;52.120;5.108;2023-02-21T09:59:38;169.77;;;49.03;;
12591;SDS011;6361;52.120;5.108;2023-02-21T10:15:58;163.23;;;45.08;;
12591;SDS011;6361;52.120;5.108;2023-02-21T10:18:47;160.93;;;46.88;;
12591;SDS011;6361;52.120;5.108;2023-02-21T10:21:28;144.63;;;44.38;;
12591;SDS011;6361;52.120;5.108;2023-02-21T10:23:57;156.93;;;47.78;;
12591;SDS011;6361;52.120;5.108;2023-02-21T10:26:28;145.80;;;47.75;;
12591;SDS011;6361;52.120;5.108;2023-02-21T10:28:56;156.50;;;46.60;;
12591;SDS011;6361;52.120;5.108;2023-02-21T10:31:24;161.60;;;46.83;;
12591;SDS011;6361;52.120;5.108;2023-02-21T10:33:55;158.75;;;46.92;;
12591;SDS011;6361;52.120;5.108;2023-02-21T10:36:21;146.00;;;44.20;;
12591;SDS011;6361;52.120;5.108;2023-02-21T10:41:37;159.35;;;46.15;;
12591;SDS011;6361;52.120;5.108;2023-02-21T10:44:08;163.90;;;48.15;;
12591;SDS011;6361;52.120;5.108;2023-02-21T10:46:38;155.85;;;46.53;;
12591;SDS011;6361;52.120;5.108;2023-02-21T10:54:38;167.35;;;49.42;;
12591;SDS011;6361;52.120;5.108;2023-02-21T10:57:05;169.88;;;47.70;;
12591;SDS011;6361;52.120;5.108;2023-02-21T10:59:33;184.75;;;49.83;;
12591;SDS011;6361;52.120;5.108;2023-02-21T11:02:01;175.43;;;47.47;;
12591;SDS011;6361;52.120;5.108;2023-02-21T11:04:29;173.15;;;49.42;;
12591;SDS011;6361;52.120;5.108;2023-02-21T11:07:05;191.13;;;51.20;;
12591;SDS011;6361;52.120;5.108;2023-02-21T11:09:34;181.65;;;49.13;;
12591;SDS011;6361;52.120;5.108;2023-02-21T11:15:02;168.80;;;50.05;;
12591;SDS011;6361;52.120;5.108;2023-02-21T11:17:31;163.73;;;46.30;;
12591;SDS011;6361;52.120;5.108;2023-02-21T11:19:57;183.98;;;46.70;;
12591;SDS011;6361;52.120;5.108;2023-02-21T11:22:36;176.70;;;47.13;;
12591;SDS011;6361;52.120;5.108;2023-02-21T11:30:26;186.95;;;46.72;;
12591;SDS011;6361;52.120;5.108;2023-02-21T11:32:54;191.43;;;48.42;;
12591;SDS011;6361;52.120;5.108;2023-02-21T11:41:03;187.10;;;47.75;;
12591;SDS011;6361;52.120;5.108;2023-02-21T11:43:45;183.27;;;47.65;;
12591;SDS011;6361;52.120;5.108;2023-02-21T11:46:17;167.15;;;47.35;;
12591;SDS011;6361;52.120;5.108;2023-02-21T11:48:58;155.20;;;43.42;;
12591;SDS011;6361;52.120;5.108;2023-02-21T11:51:48;158.02;;;43.60;;
12591;SDS011;6361;52.120;5.108;2023-02-21T11:54:15;160.57;;;42.53;;
12591;SDS011;6361;52.120;5.108;2023-02-21T11:59:40;155.10;;;44.00;;
12591;SDS011;6361;52.120;5.108;2023-02-21T12:10:26;139.93;;;41.72;;
12591;SDS011;6361;52.120;5.108;2023-02-21T12:13:03;149.77;;;45.20;;
12591;SDS011;6361;52.120;5.108;2023-02-21T12:18:18;158.48;;;46.40;;
12591;SDS011;6361;52.120;5.108;2023-02-21T12:23:34;126.60;;;40.58;;
12591;SDS011;6361;52.120;5.108;2023-02-21T12:29:02;140.27;;;43.30;;
12591;SDS011;6361;52.120;5.108;2023-02-21T12:42:56;114.80;;;37.38;;
12591;SDS011;6361;52.120;5.108;2023-02-21T12:45:53;104.35;;;34.70;;
12591;SDS011;6361;52.120;5.108;2023-02-21T12:51:16;90.68;;;32.35;;
12591;SDS011;6361;52.120;5.108;2023-02-21T12:53:52;90.43;;;31.45;;
12591;SDS011;6361;52.120;5.108;2023-02-21T12:56:25;91.43;;;31.50;;
12591;SDS011;6361;52.120;5.108;2023-02-21T13:01:24;79.63;;;28.77;;
12591;SDS011;6361;52.120;5.108;2023-02-21T13:07:25;73.80;;;26.00;;
12591;SDS011;6361;52.120;5.108;2023-02-21T13:12:53;65.05;;;23.20;;
12591;SDS011;6361;52.120;5.108;2023-02-21T13:15:21;63.70;;;23.98;;
12591;SDS011;6361;52.120;5.108;2023-02-21T13:17:51;60.42;;;22.27;;
12591;SDS011;6361;52.120;5.108;2023-02-21T13:20:22;59.80;;;21.98;;
12591;SDS011;6361;52.120;5.108;2023-02-21T13:28:43;57.50;;;21.52;;
12591;SDS011;6361;52.120;5.108;2023-02-21T13:31:20;58.00;;;21.30;;
12591;SDS011;6361;52.120;5.108;2023-02-21T13:33:51;56.90;;;21.25;;
12591;SDS011;6361;52.120;5.108;2023-02-21T13:36:27;60.20;;;21.67;;
12591;SDS011;6361;52.120;5.108;2023-02-21T13:41:43;66.97;;;24.90;;
12591;SDS011;6361;52.120;5.108;2023-02-21T13:44:14;72.82;;;27.08;;
12591;SDS011;6361;52.120;5.108;2023-02-21T13:57:47;59.95;;;24.58;;
12591;SDS011;6361;52.120;5.108;2023-02-21T14:03:00;55.30;;;21.98;;
12591;SDS011;6361;52.120;5.108;2023-02-21T14:08:27;50.65;;;21.27;;
12591;SDS011;6361;52.120;5.108;2023-02-21T14:24:10;25.48;;;13.45;;
12591;SDS011;6361;52.120;5.108;2023-02-21T14:26:56;24.15;;;12.43;;
12591;SDS011;6361;52.120;5.108;2023-02-21T14:45:58;20.10;;;10.38;;
12591;SDS011;6361;52.120;5.108;2023-02-21T15:05:55;17.92;;;9.40;;
12591;SDS011;6361;52.120;5.108;2023-02-21T15:08:26;19.13;;;10.10;;
12591;SDS011;6361;52.120;5.108;2023-02-21T15:10:54;19.80;;;10.30;;
12591;SDS011;6361;52.120;5.108;2023-02-21T15:15:53;18.92;;;9.90;;
12591;SDS011;6361;52.120;5.108;2023-02-21T15:18:28;19.92;;;9.77;;
12591;SDS011;6361;52.120;5.108;2023-02-21T15:23:31;20.30;;;10.30;;
12591;SDS011;6361;52.120;5.108;2023-02-21T15:25:58;18.90;;;10.10;;
12591;SDS011;6361;52.120;5.108;2023-02-21T15:28:43;17.13;;;8.68;;
12591;SDS011;6361;52.120;5.108;2023-02-21T15:31:10;17.50;;;9.05;;
12591;SDS011;6361;52.120;5.108;2023-02-21T15:33:37;15.98;;;8.05;;
12591;SDS011;6361;52.120;5.108;2023-02-21T15:36:25;14.82;;;7.82;;
12591;SDS011;6361;52.120;5.108;2023-02-21T15:41:33;17.92;;;8.38;;
12591;SDS011;6361;52.120;5.108;2023-02-21T15:44:07;19.33;;;9.55;;
12591;SDS011;6361;52.120;5.108;2023-02-21T15:46:44;18.55;;;9.65;;
12591;SDS011;6361;52.120;5.108;2023-02-21T15:49:23;17.92;;;9.43;;
12591;SDS011;6361;52.120;5.108;2023-02-21T15:51:51;22.17;;;9.60;;
12591;SDS011;6361;52.120;5.108;2023-02-21T15:56:42;19.25;;;9.77;;
12591;SDS011;6361;52.120;5.108;2023-02-21T15:59:09;20.42;;;10.25;;
12591;SDS011;6361;52.120;5.108;2023-02-21T16:01:35;22.33;;;11.90;;
12591;SDS011;6361;52.120;5.108;2023-02-21T16:04:17;18.40;;;9.95;;
12591;SDS011;6361;52.120;5.108;2023-02-21T16:06:55;18.63;;;9.53;;
12591;SDS011;6361;52.120;5.108;2023-02-21T16:12:04;18.80;;;10.27;;
12591;SDS011;6361;52.120;5.108;2023-02-21T16:17:41;17.77;;;10.23;;
12591;SDS011;6361;52.120;5.108;2023-02-21T16:22:41;17.35;;;10.10;;
12591;SDS011;6361;52.120;5.108;2023-02-21T16:27:57;16.77;;;9.38;;
12591;SDS011;6361;52.120;5.108;2023-02-21T16:30:25;17.23;;;10.10;;
12591;SDS011;6361;52.120;5.108;2023-02-21T16:32:52;18.48;;;10.70;;
12591;SDS011;6361;52.120;5.108;2023-02-21T16:35:27;20.95;;;11.57;;
12591;SDS011;6361;52.120;5.108;2023-02-21T16:37:54;21.30;;;11.65;;
12591;SDS011;6361;52.120;5.108;2023-02-21T16:40:22;19.30;;;10.70;;
12591;SDS011;6361;52.120;5.108;2023-02-21T16:42:58;21.60;;;11.50;;
12591;SDS011;6361;52.120;5.108;2023-02-21T16:45:26;20.67;;;11.20;;
12591;SDS011;6361;52.120;5.108;2023-02-21T16:47:56;20.02;;;11.10;;
12591;SDS011;6361;52.120;5.108;2023-02-21T16:52:56;23.92;;;12.38;;
12591;SDS011;6361;52.120;5.108;2023-02-21T16:55:21;23.17;;;12.32;;
12591;SDS011;6361;52.120;5.108;2023-02-21T16:57:50;20.35;;;10.75;;
12591;SDS011;6361;52.120;5.108;2023-02-21T17:00:19;23.88;;;12.98;;
12591;SDS011;6361;52.120;5.108;2023-02-21T17:02:49;26.85;;;13.48;;
12591;SDS011;6361;52.120;5.108;2023-02-21T17:05:16;26.60;;;13.57;;
12591;SDS011;6361;52.120;5.108;2023-02-21T17:07:41;30.75;;;15.13;;
12591;SDS011;6361;52.120;5.108;2023-02-21T17:10:07;31.73;;;16.25;;
12591;SDS011;6361;52.120;5.108;2023-02-21T17:12:34;32.03;;;16.08;;
12591;SDS011;6361;52.120;5.108;2023-02-21T17:14:59;34.40;;;16.70;;
12591;SDS011;6361;52.120;5.108;2023-02-21T17:17:25;32.83;;;16.25;;
12591;SDS011;6361;52.120;5.108;2023-02-21T17:19:50;34.47;;;16.83;;
12591;SDS011;6361;52.120;5.108;2023-02-21T17:22:15;35.80;;;16.77;;
12591;SDS011;6361;52.120;5.108;2023-02-21T17:24:41;37.20;;;17.52;;
12591;SDS011;6361;52.120;5.108;2023-02-21T17:27:06;36.85;;;17.20;;
12591;SDS011;6361;52.120;5.108;2023-02-21T17:29:32;35.90;;;16.85;;
12591;SDS011;6361;52.120;5.108;2023-02-21T17:31:57;32.65;;;16.02;;
12591;SDS011;6361;52.120;5.108;2023-02-21T17:34:23;30.88;;;14.48;;
12591;SDS011;6361;52.120;5.108;2023-02-21T17:36:49;31.02;;;14.98;;
12591;SDS011;6361;52.120;5.108;2023-02-21T17:39:16;31.95;;;14.52;;
12591;SDS011;6361;52.120;5.108;2023-02-21T17:41:48;33.08;;;15.15;;
12591;SDS011;6361;52.120;5.108;2023-02-21T17:44:15;29.52;;;14.13;;
12591;SDS011;6361;52.120;5.108;2023-02-21T17:46:48;29.52;;;14.75;;
12591;SDS011;6361;52.120;5.108;2023-02-21T17:49:15;37.95;;;15.40;;
12591;SDS011;6361;52.120;5.108;2023-02-21T17:51:41;34.83;;;16.38;;
12591;SDS011;6361;52.120;5.108;2023-02-21T17:54:07;37.35;;;15.98;;
12591;SDS011;6361;52.120;5.108;2023-02-21T17:56:32;33.38;;;14.77;;
12591;SDS011;6361;52.120;5.108;2023-02-21T17:58:57;34.50;;;14.27;;
12591;SDS011;6361;52.120;5.108;2023-02-21T18:01:23;37.55;;;15.50;;
12591;SDS011;6361;52.120;5.108;2023-02-21T18:03:49;35.63;;;15.52;;
12591;SDS011;6361;52.120;5.108;2023-02-21T18:06:16;36.47;;;15.63;;
12591;SDS011;6361;52.120;5.108;2023-02-21T18:08:42;30.50;;;14.13;;
12591;SDS011;6361;52.120;5.108;2023-02-21T18:11:10;34.25;;;13.93;;
12591;SDS011;6361;52.120;5.108;2023-02-21T18:13:37;30.15;;;13.88;;
12591;SDS011;6361;52.120;5.108;2023-02-21T18:16:02;28.40;;;13.63;;
12591;SDS011;6361;52.120;5.108;2023-02-21T18:18:29;26.40;;;12.73;;